Time,TemperatureF,DewpointF,PressureIn,WindDirection,WindDirectionDegrees,WindSpeedMPH,WindSpeedGustMPH,Humidity,HourlyPrecipIn,Conditions,Clouds,dailyrainin,SolarRadiationWatts/m^2,SoftwareType,DateUTC
2013-12-03 00:00:00,69.8,62.6,29.86,WNW,303,1.0,1.0,78,0.00,,,0.00,0,Wunderground v.1.15,2013-12-03 10:00:00,
2013-12-03 00:30:00,68.3,61.2,29.86,WNW,291,1.0,2.0,78,0.00,,,0.00,0,Wunderground v.1.15,2013-12-03 10:30:00,
2013-12-03 01:00:00,66.9,59.5,29.86,SSE,157,3.0,3.0,77,0.00,,,0.00,0,Wunderground v.1.15,2013-12-03 11:00:00,
2013-12-03 01:30:00,66.1,59.4,29.85,SE,135,3.0,4.0,79,0.00,,,0.00,0,Wunderground v.1.15,2013-12-03 11:30:00,
2013-12-03 02:00:00,65.0,58.0,29.86,SE,133,4.0,4.0,78,0.00,,,0.00,0,Wunderground v.1.15,2013-12-03 12:00:00,
2013-12-03 02:30:00,64.8,58.5,29.85,SE,132,3.0,4.0,80,0.00,,,0.00,0,Wunderground v.1.15,2013-12-03 12:30:00,
2013-12-03 03:00:00,65.0,59.4,29.84,SE,135,4.0,4.0,82,0.00,,,0.00,0,Wunderground v.1.15,2013-12-03 13:00:00,
2013-12-03 03:30:00,65.2,58.9,29.83,ESE,123,3.0,4.0,80,0.00,,,0.00,0,Wunderground v.1.15,2013-12-03 13:30:00,
2013-12-03 04:00:00,63.9,55.8,29.83,SE,138,5.0,5.0,75,0.00,,,0.00,0,Wunderground v.1.15,2013-12-03 14:00:00,
2013-12-03 04:30:00,63.5,55.8,29.83,ESE,115,2.0,2.0,76,0.00,,,0.00,0,Wunderground v.1.15,2013-12-03 14:30:00,
2013-12-03 05:00:00,64.2,56.5,29.83,SE,136,3.0,4.0,76,0.00,,,0.00,0,Wunderground v.1.15,2013-12-03 15:00:00,
2013-12-03 05:30:00,65.6,56.3,29.83,SE,137,3.0,3.0,72,0.00,,,0.00,0,Wunderground v.1.15,2013-12-03 15:30:00,
2013-12-03 06:00:00,67.4,56.5,29.84,ESE,110,3.0,4.0,68,0.00,,,0.00,0,Wunderground v.1.15,2013-12-03 16:00:00,
2013-12-03 06:30:00,66.4,54.7,29.85,ESE,117,3.0,3.0,66,0.00,,,0.00,0,Wunderground v.1.15,2013-12-03 16:30:00,
2013-12-03 07:00:00,65.3,54.9,29.86,ESE,123,3.0,3.0,69,0.00,,,0.00,12,Wunderground v.1.15,2013-12-03 17:00:00,
2013-12-03 07:30:00,67.3,55.1,29.87,SE,134,4.0,5.0,65,0.00,,,0.00,42,Wunderground v.1.15,2013-12-03 17:30:00,
2013-12-03 08:00:00,69.4,54.9,29.86,East,84,8.0,8.0,60,0.00,,,0.00,62,Wunderground v.1.15,2013-12-03 18:00:00,
2013-12-03 08:30:00,72.3,58.5,29.86,ENE,65,5.0,5.0,62,0.00,,,0.00,318,Wunderground v.1.15,2013-12-03 18:30:00,
2013-12-03 09:00:00,75.6,60.3,29.85,East,92,7.0,7.0,59,0.00,,,0.00,415,Wunderground v.1.15,2013-12-03 19:00:00,
2013-12-03 09:30:00,77.6,59.1,29.85,ENE,71,6.0,6.0,53,0.00,,,0.00,499,Wunderground v.1.15,2013-12-03 19:30:00,
2013-12-03 10:00:00,77.2,62.2,29.84,NW,305,5.0,6.0,60,0.00,,,0.00,580,Wunderground v.1.15,2013-12-03 20:00:00,
2013-12-03 10:30:00,77.7,61.7,29.84,NW,315,4.0,4.0,58,0.00,,,0.00,638,Wunderground v.1.15,2013-12-03 20:30:00,
2013-12-03 11:00:00,78.8,62.3,29.83,WNW,302,3.0,3.0,57,0.00,,,0.00,682,Wunderground v.1.15,2013-12-03 21:00:00,
2013-12-03 11:30:00,79.2,63.1,29.83,NW,312,4.0,4.0,58,0.00,,,0.00,707,Wunderground v.1.15,2013-12-03 21:30:00,
2013-12-03 12:00:00,79.4,61.8,29.82,West,269,5.0,6.0,55,0.00,,,0.00,724,Wunderground v.1.15,2013-12-03 22:00:00,
2013-12-03 12:30:00,80.1,63.0,29.81,WNW,287,5.0,6.0,56,0.00,,,0.00,751,Wunderground v.1.15,2013-12-03 22:30:00,
2013-12-03 13:00:00,80.3,64.2,29.79,NW,304,3.0,5.0,58,0.00,,,0.00,735,Wunderground v.1.15,2013-12-03 23:00:00,
2013-12-03 13:30:00,80.1,61.4,29.78,West,278,3.0,4.0,53,0.00,,,0.00,675,Wunderground v.1.15,2013-12-03 23:30:00,
2013-12-03 14:00:00,80.1,62.5,29.77,West,278,3.0,5.0,55,0.00,,,0.00,172,Wunderground v.1.15,2013-12-04 00:00:00,
2013-12-03 14:30:00,79.2,63.1,29.77,WNW,288,4.0,4.0,58,0.00,,,0.00,545,Wunderground v.1.15,2013-12-04 00:30:00,
2013-12-03 15:00:00,79.4,63.8,29.76,NW,316,4.0,6.0,59,0.00,,,0.00,468,Wunderground v.1.15,2013-12-04 01:00:00,
2013-12-03 15:30:00,79.2,64.1,29.77,WSW,253,3.0,6.0,60,0.00,,,0.00,392,Wunderground v.1.15,2013-12-04 01:30:00,
2013-12-03 16:00:00,78.5,64.4,29.77,WNW,286,3.0,3.0,62,0.00,,,0.00,283,Wunderground v.1.15,2013-12-04 02:00:00,
2013-12-03 16:30:00,77.6,64.5,29.77,West,263,4.0,4.0,64,0.00,,,0.00,199,Wunderground v.1.15,2013-12-04 02:30:00,
2013-12-03 17:00:00,77.0,63.9,29.78,WNW,284,2.0,3.0,64,0.00,,,0.00,91,Wunderground v.1.15,2013-12-04 03:00:00,
2013-12-03 17:30:00,76.1,64.8,29.79,West,278,2.0,2.0,68,0.00,,,0.00,16,Wunderground v.1.15,2013-12-04 03:30:00,
2013-12-03 18:00:00,75.1,65.1,29.81,West,278,1.0,4.0,71,0.00,,,0.00,0,Wunderground v.1.15,2013-12-04 04:00:00,
2013-12-03 18:30:00,74.2,65.0,29.83,West,279,1.0,1.0,73,0.00,,,0.00,0,Wunderground v.1.15,2013-12-04 04:30:00,
2013-12-03 19:00:00,73.7,65.3,29.84,West,279,0.0,0.0,75,0.00,,,0.00,0,Wunderground v.1.15,2013-12-04 05:00:00,
2013-12-03 19:30:00,72.8,65.5,29.84,West,278,0.0,0.0,78,0.00,,,0.00,0,Wunderground v.1.15,2013-12-04 05:30:00,
2013-12-03 20:00:00,70.8,61.7,29.85,West,278,0.0,0.0,73,0.00,,,0.00,0,Wunderground v.1.15,2013-12-04 06:00:00,
2013-12-03 20:30:00,70.1,61.4,29.86,West,278,0.0,0.0,74,0.00,,,0.00,0,Wunderground v.1.15,2013-12-04 06:30:00,
2013-12-03 21:00:00,70.3,62.0,29.86,West,277,0.0,0.0,75,0.00,,,0.00,0,Wunderground v.1.15,2013-12-04 07:00:00,
2013-12-03 21:30:00,69.9,59.7,29.86,West,277,1.0,3.0,70,0.00,,,0.00,0,Wunderground v.1.15,2013-12-04 07:30:00,
2013-12-03 22:00:00,68.8,57.0,29.87,ESE,103,3.0,3.0,66,0.00,,,0.00,0,Wunderground v.1.15,2013-12-04 08:00:00,
2013-12-03 22:30:00,68.4,57.8,29.87,ESE,104,2.0,2.0,69,0.00,,,0.00,0,Wunderground v.1.15,2013-12-04 08:30:00,
2013-12-03 23:00:00,67.6,57.9,29.87,ESE,119,3.0,4.0,71,0.00,,,0.00,0,Wunderground v.1.15,2013-12-04 09:00:00,
2013-12-03 23:30:00,66.6,57.3,29.87,ESE,117,3.0,3.0,72,0.00,,,0.00,0,Wunderground v.1.15,2013-12-04 09:30:00,